sensor_id;sensor_type;location;lat;lon;timestamp;P1;durP1;ratioP1;P2;durP2;ratioP2
18224;SDS011;9237;48.590;8.854;2023-07-31T00:00:18;0.70;;;0.70;;
18224;SDS011;9237;48.590;8.854;2023-07-31T00:02:45;0.70;;;0.70;;
18224;SDS011;9237;48.590;8.854;2023-07-31T00:05:11;0.70;;;0.70;;
18224;SDS011;9237;48.590;8.854;2023-07-31T00:07:38;0.70;;;0.70;;
18224;SDS011;9237;48.590;8.854;2023-07-31T00:10:05;0.70;;;0.70;;
18224;SDS011;9237;48.590;8.854;2023-07-31T00:12:34;0.70;;;0.70;;
18224;SDS011;9237;48.590;8.854;2023-07-31T00:15:01;0.70;;;0.70;;
18224;SDS011;9237;48.590;8.854;2023-07-31T00:17:28;0.70;;;0.70;;
18224;SDS011;9237;48.590;8.854;2023-07-31T00:19:55;0.70;;;0.70;;
18224;SDS011;9237;48.590;8.854;2023-07-31T00:22:22;0.70;;;0.70;;
18224;SDS011;9237;48.590;8.854;2023-07-31T00:24:49;0.70;;;0.70;;
18224;SDS011;9237;48.590;8.854;2023-07-31T00:27:16;0.80;;;0.80;;
18224;SDS011;9237;48.590;8.854;2023-07-31T00:29:44;0.70;;;0.70;;
18224;SDS011;9237;48.590;8.854;2023-07-31T00:32:10;0.70;;;0.70;;
18224;SDS011;9237;48.590;8.854;2023-07-31T00:34:37;0.70;;;0.70;;
18224;SDS011;9237;48.590;8.854;2023-07-31T00:37:04;0.80;;;0.80;;
18224;SDS011;9237;48.590;8.854;2023-07-31T00:39:33;0.83;;;0.83;;
18224;SDS011;9237;48.590;8.854;2023-07-31T00:42:00;0.80;;;0.80;;
18224;SDS011;9237;48.590;8.854;2023-07-31T00:44:27;0.70;;;0.70;;
18224;SDS011;9237;48.590;8.854;2023-07-31T00:46:55;0.80;;;0.80;;
18224;SDS011;9237;48.590;8.854;2023-07-31T00:49:23;0.70;;;0.70;;
18224;SDS011;9237;48.590;8.854;2023-07-31T00:51:50;0.80;;;0.80;;
18224;SDS011;9237;48.590;8.854;2023-07-31T00:54:17;0.70;;;0.70;;
18224;SDS011;9237;48.590;8.854;2023-07-31T00:56:44;0.70;;;0.70;;
18224;SDS011;9237;48.590;8.854;2023-07-31T00:59:13;0.70;;;0.70;;
18224;SDS011;9237;48.590;8.854;2023-07-31T01:01:40;0.70;;;0.70;;
18224;SDS011;9237;48.590;8.854;2023-07-31T01:04:08;0.90;;;0.90;;
18224;SDS011;9237;48.590;8.854;2023-07-31T01:06:36;0.70;;;0.70;;
18224;SDS011;9237;48.590;8.854;2023-07-31T01:09:07;0.70;;;0.70;;
18224;SDS011;9237;48.590;8.854;2023-07-31T01:11:38;0.70;;;0.70;;
18224;SDS011;9237;48.590;8.854;2023-07-31T01:14:10;0.70;;;0.70;;
18224;SDS011;9237;48.590;8.854;2023-07-31T01:16:36;0.70;;;0.70;;
18224;SDS011;9237;48.590;8.854;2023-07-31T01:19:03;0.70;;;0.70;;
18224;SDS011;9237;48.590;8.854;2023-07-31T01:21:51;0.70;;;0.70;;
18224;SDS011;9237;48.590;8.854;2023-07-31T01:24:36;0.70;;;0.70;;
18224;SDS011;9237;48.590;8.854;2023-07-31T01:27:15;0.70;;;0.70;;
18224;SDS011;9237;48.590;8.854;2023-07-31T01:29:48;0.70;;;0.70;;
18224;SDS011;9237;48.590;8.854;2023-07-31T01:32:19;0.70;;;0.70;;
18224;SDS011;9237;48.590;8.854;2023-07-31T01:34:48;0.70;;;0.70;;
18224;SDS011;9237;48.590;8.854;2023-07-31T01:37:15;0.70;;;0.70;;
18224;SDS011;9237;48.590;8.854;2023-07-31T01:39:43;0.70;;;0.70;;
18224;SDS011;9237;48.590;8.854;2023-07-31T01:42:09;0.70;;;0.70;;
18224;SDS011;9237;48.590;8.854;2023-07-31T01:44:37;0.70;;;0.70;;
18224;SDS011;9237;48.590;8.854;2023-07-31T01:47:05;0.70;;;0.70;;
18224;SDS011;9237;48.590;8.854;2023-07-31T01:49:32;0.70;;;0.70;;
18224;SDS011;9237;48.590;8.854;2023-07-31T01:51:58;0.80;;;0.80;;
18224;SDS011;9237;48.590;8.854;2023-07-31T01:54:25;0.80;;;0.80;;
18224;SDS011;9237;48.590;8.854;2023-07-31T01:56:52;0.70;;;0.70;;
18224;SDS011;9237;48.590;8.854;2023-07-31T01:59:18;0.70;;;0.70;;
18224;SDS011;9237;48.590;8.854;2023-07-31T02:01:47;0.70;;;0.70;;
18224;SDS011;9237;48.590;8.854;2023-07-31T02:04:13;0.80;;;0.80;;
18224;SDS011;9237;48.590;8.854;2023-07-31T02:06:40;0.70;;;0.70;;
18224;SDS011;9237;48.590;8.854;2023-07-31T02:09:07;0.70;;;0.70;;
18224;SDS011;9237;48.590;8.854;2023-07-31T02:11:34;0.70;;;0.70;;
18224;SDS011;9237;48.590;8.854;2023-07-31T02:14:01;0.80;;;0.80;;
18224;SDS011;9237;48.590;8.854;2023-07-31T02:16:27;0.70;;;0.70;;
18224;SDS011;9237;48.590;8.854;2023-07-31T02:18:56;0.70;;;0.70;;
18224;SDS011;9237;48.590;8.854;2023-07-31T02:21:22;0.80;;;0.80;;
18224;SDS011;9237;48.590;8.854;2023-07-31T02:23:49;0.80;;;0.80;;
18224;SDS011;9237;48.590;8.854;2023-07-31T02:26:16;0.80;;;0.80;;
18224;SDS011;9237;48.590;8.854;2023-07-31T02:28:42;0.70;;;0.70;;
18224;SDS011;9237;48.590;8.854;2023-07-31T02:31:09;0.80;;;0.80;;
18224;SDS011;9237;48.590;8.854;2023-07-31T02:33:36;0.70;;;0.70;;
18224;SDS011;9237;48.590;8.854;2023-07-31T02:36:04;0.80;;;0.80;;
18224;SDS011;9237;48.590;8.854;2023-07-31T02:38:31;0.70;;;0.70;;
18224;SDS011;9237;48.590;8.854;2023-07-31T02:40:58;0.70;;;0.70;;
18224;SDS011;9237;48.590;8.854;2023-07-31T02:43:25;0.80;;;0.80;;
18224;SDS011;9237;48.590;8.854;2023-07-31T02:45:51;0.70;;;0.70;;
18224;SDS011;9237;48.590;8.854;2023-07-31T02:48:18;0.80;;;0.80;;
18224;SDS011;9237;48.590;8.854;2023-07-31T02:50:45;0.70;;;0.70;;
18224;SDS011;9237;48.590;8.854;2023-07-31T02:53:14;0.80;;;0.80;;
18224;SDS011;9237;48.590;8.854;2023-07-31T02:55:41;0.70;;;0.70;;
18224;SDS011;9237;48.590;8.854;2023-07-31T02:58:08;0.70;;;0.70;;
18224;SDS011;9237;48.590;8.854;2023-07-31T03:00:35;0.80;;;0.80;;
18224;SDS011;9237;48.590;8.854;2023-07-31T03:03:01;0.70;;;0.70;;
18224;SDS011;9237;48.590;8.854;2023-07-31T03:05:28;0.80;;;0.80;;
18224;SDS011;9237;48.590;8.854;2023-07-31T03:07:55;0.80;;;0.80;;
18224;SDS011;9237;48.590;8.854;2023-07-31T03:10:23;0.80;;;0.80;;
18224;SDS011;9237;48.590;8.854;2023-07-31T03:12:50;0.80;;;0.80;;
18224;SDS011;9237;48.590;8.854;2023-07-31T03:15:17;0.80;;;0.80;;
18224;SDS011;9237;48.590;8.854;2023-07-31T03:17:43;0.70;;;0.70;;
18224;SDS011;9237;48.590;8.854;2023-07-31T03:20:10;0.70;;;0.70;;
18224;SDS011;9237;48.590;8.854;2023-07-31T03:22:37;0.70;;;0.70;;
18224;SDS011;9237;48.590;8.854;2023-07-31T03:25:04;0.70;;;0.70;;
18224;SDS011;9237;48.590;8.854;2023-07-31T03:27:33;0.70;;;0.70;;
18224;SDS011;9237;48.590;8.854;2023-07-31T03:30:00;0.73;;;0.73;;
18224;SDS011;9237;48.590;8.854;2023-07-31T03:32:27;0.70;;;0.70;;
18224;SDS011;9237;48.590;8.854;2023-07-31T03:34:54;0.70;;;0.70;;
18224;SDS011;9237;48.590;8.854;2023-07-31T03:37:20;0.70;;;0.70;;
18224;SDS011;9237;48.590;8.854;2023-07-31T03:39:47;0.70;;;0.70;;
18224;SDS011;9237;48.590;8.854;2023-07-31T03:42:14;0.70;;;0.70;;
18224;SDS011;9237;48.590;8.854;2023-07-31T03:44:42;0.70;;;0.70;;
18224;SDS011;9237;48.590;8.854;2023-07-31T03:47:09;0.70;;;0.70;;
18224;SDS011;9237;48.590;8.854;2023-07-31T03:49:36;0.73;;;0.73;;
18224;SDS011;9237;48.590;8.854;2023-07-31T03:52:03;0.70;;;0.70;;
18224;SDS011;9237;48.590;8.854;2023-07-31T03:54:30;0.70;;;0.70;;
18224;SDS011;9237;48.590;8.854;2023-07-31T03:56:57;0.80;;;0.80;;
18224;SDS011;9237;48.590;8.854;2023-07-31T03:59:24;0.80;;;0.80;;
18224;SDS011;9237;48.590;8.854;2023-07-31T04:01:52;0.80;;;0.80;;
18224;SDS011;9237;48.590;8.854;2023-07-31T04:04:19;0.70;;;0.70;;
18224;SDS011;9237;48.590;8.854;2023-07-31T04:06:46;0.80;;;0.80;;
18224;SDS011;9237;48.590;8.854;2023-07-31T04:09:13;0.70;;;0.70;;
18224;SDS011;9237;48.590;8.854;2023-07-31T04:11:39;0.70;;;0.70;;
18224;SDS011;9237;48.590;8.854;2023-07-31T04:14:06;0.80;;;0.80;;
18224;SDS011;9237;48.590;8.854;2023-07-31T04:16:33;0.80;;;0.80;;
18224;SDS011;9237;48.590;8.854;2023-07-31T04:19:01;0.80;;;0.80;;
18224;SDS011;9237;48.590;8.854;2023-07-31T04:21:28;0.80;;;0.80;;
18224;SDS011;9237;48.590;8.854;2023-07-31T04:23:55;0.80;;;0.80;;
18224;SDS011;9237;48.590;8.854;2023-07-31T04:26:23;0.80;;;0.80;;
18224;SDS011;9237;48.590;8.854;2023-07-31T04:28:50;0.80;;;0.80;;
18224;SDS011;9237;48.590;8.854;2023-07-31T04:31:17;0.80;;;0.80;;
18224;SDS011;9237;48.590;8.854;2023-07-31T04:33:43;0.80;;;0.80;;
18224;SDS011;9237;48.590;8.854;2023-07-31T04:39:02;0.70;;;0.70;;
18224;SDS011;9237;48.590;8.854;2023-07-31T04:41:29;0.80;;;0.80;;
18224;SDS011;9237;48.590;8.854;2023-07-31T04:43:56;0.70;;;0.70;;
18224;SDS011;9237;48.590;8.854;2023-07-31T04:46:22;0.80;;;0.80;;
18224;SDS011;9237;48.590;8.854;2023-07-31T04:48:49;0.70;;;0.70;;
18224;SDS011;9237;48.590;8.854;2023-07-31T04:51:16;0.73;;;0.73;;
18224;SDS011;9237;48.590;8.854;2023-07-31T04:53:44;0.80;;;0.80;;
18224;SDS011;9237;48.590;8.854;2023-07-31T04:56:11;0.70;;;0.70;;
18224;SDS011;9237;48.590;8.854;2023-07-31T04:58:37;0.70;;;0.70;;
18224;SDS011;9237;48.590;8.854;2023-07-31T05:01:04;0.70;;;0.70;;
18224;SDS011;9237;48.590;8.854;2023-07-31T05:03:31;0.70;;;0.70;;
18224;SDS011;9237;48.590;8.854;2023-07-31T05:05:58;0.80;;;0.80;;
18224;SDS011;9237;48.590;8.854;2023-07-31T05:08:24;0.80;;;0.80;;
18224;SDS011;9237;48.590;8.854;2023-07-31T05:10:52;0.70;;;0.70;;
18224;SDS011;9237;48.590;8.854;2023-07-31T05:13:19;0.80;;;0.80;;
18224;SDS011;9237;48.590;8.854;2023-07-31T05:15:46;0.70;;;0.70;;
18224;SDS011;9237;48.590;8.854;2023-07-31T05:18:14;0.70;;;0.70;;
18224;SDS011;9237;48.590;8.854;2023-07-31T05:20:41;0.70;;;0.70;;
18224;SDS011;9237;48.590;8.854;2023-07-31T05:23:08;0.70;;;0.70;;
18224;SDS011;9237;48.590;8.854;2023-07-31T05:25:35;0.70;;;0.70;;
18224;SDS011;9237;48.590;8.854;2023-07-31T05:28:03;0.70;;;0.70;;
18224;SDS011;9237;48.590;8.854;2023-07-31T05:30:30;0.70;;;0.70;;
18224;SDS011;9237;48.590;8.854;2023-07-31T05:32:57;0.70;;;0.70;;
18224;SDS011;9237;48.590;8.854;2023-07-31T05:35:23;0.70;;;0.70;;
18224;SDS011;9237;48.590;8.854;2023-07-31T05:37:50;0.70;;;0.70;;
18224;SDS011;9237;48.590;8.854;2023-07-31T05:40:17;0.70;;;0.70;;
18224;SDS011;9237;48.590;8.854;2023-07-31T05:42:44;0.60;;;0.60;;
18224;SDS011;9237;48.590;8.854;2023-07-31T05:45:12;0.60;;;0.60;;
18224;SDS011;9237;48.590;8.854;2023-07-31T05:47:39;0.70;;;0.70;;
18224;SDS011;9237;48.590;8.854;2023-07-31T05:50:06;0.60;;;0.60;;
18224;SDS011;9237;48.590;8.854;2023-07-31T05:52:34;0.60;;;0.60;;
18224;SDS011;9237;48.590;8.854;2023-07-31T05:57:33;0.60;;;0.60;;
18224;SDS011;9237;48.590;8.854;2023-07-31T06:00:01;0.60;;;0.60;;
18224;SDS011;9237;48.590;8.854;2023-07-31T06:02:30;0.60;;;0.60;;
18224;SDS011;9237;48.590;8.854;2023-07-31T06:04:58;0.60;;;0.60;;
18224;SDS011;9237;48.590;8.854;2023-07-31T06:07:25;0.60;;;0.60;;
18224;SDS011;9237;48.590;8.854;2023-07-31T06:09:52;0.60;;;0.60;;
18224;SDS011;9237;48.590;8.854;2023-07-31T06:12:19;0.60;;;0.60;;
18224;SDS011;9237;48.590;8.854;2023-07-31T06:14:46;0.60;;;0.60;;
18224;SDS011;9237;48.590;8.854;2023-07-31T06:17:13;0.60;;;0.60;;
18224;SDS011;9237;48.590;8.854;2023-07-31T06:19:41;0.60;;;0.60;;
18224;SDS011;9237;48.590;8.854;2023-07-31T06:22:09;0.60;;;0.60;;
18224;SDS011;9237;48.590;8.854;2023-07-31T06:24:36;0.70;;;0.70;;
18224;SDS011;9237;48.590;8.854;2023-07-31T06:27:03;0.70;;;0.70;;
18224;SDS011;9237;48.590;8.854;2023-07-31T06:29:31;0.60;;;0.60;;
18224;SDS011;9237;48.590;8.854;2023-07-31T06:31:58;0.63;;;0.63;;
18224;SDS011;9237;48.590;8.854;2023-07-31T06:34:25;0.60;;;0.60;;
18224;SDS011;9237;48.590;8.854;2023-07-31T06:36:53;0.60;;;0.60;;
18224;SDS011;9237;48.590;8.854;2023-07-31T06:39:21;0.70;;;0.70;;
18224;SDS011;9237;48.590;8.854;2023-07-31T06:41:48;0.60;;;0.60;;
18224;SDS011;9237;48.590;8.854;2023-07-31T06:44:15;0.60;;;0.60;;
18224;SDS011;9237;48.590;8.854;2023-07-31T06:46:42;0.60;;;0.60;;
18224;SDS011;9237;48.590;8.854;2023-07-31T06:49:09;0.60;;;0.60;;
18224;SDS011;9237;48.590;8.854;2023-07-31T06:51:36;0.60;;;0.60;;
18224;SDS011;9237;48.590;8.854;2023-07-31T06:54:04;0.50;;;0.50;;
18224;SDS011;9237;48.590;8.854;2023-07-31T06:56:31;0.60;;;0.60;;
18224;SDS011;9237;48.590;8.854;2023-07-31T06:58:58;0.60;;;0.60;;
18224;SDS011;9237;48.590;8.854;2023-07-31T07:01:25;0.70;;;0.70;;
18224;SDS011;9237;48.590;8.854;2023-07-31T07:03:52;0.63;;;0.63;;
18224;SDS011;9237;48.590;8.854;2023-07-31T07:06:19;0.60;;;0.60;;
18224;SDS011;9237;48.590;8.854;2023-07-31T07:08:46;0.60;;;0.60;;
18224;SDS011;9237;48.590;8.854;2023-07-31T07:11:14;0.60;;;0.60;;
18224;SDS011;9237;48.590;8.854;2023-07-31T07:13:41;0.70;;;0.70;;
18224;SDS011;9237;48.590;8.854;2023-07-31T07:16:08;0.60;;;0.60;;
18224;SDS011;9237;48.590;8.854;2023-07-31T07:18:35;0.60;;;0.60;;
18224;SDS011;9237;48.590;8.854;2023-07-31T07:21:02;0.60;;;0.60;;
18224;SDS011;9237;48.590;8.854;2023-07-31T07:23:29;0.60;;;0.60;;
18224;SDS011;9237;48.590;8.854;2023-07-31T07:25:56;0.60;;;0.60;;
18224;SDS011;9237;48.590;8.854;2023-07-31T07:28:24;0.60;;;0.60;;
18224;SDS011;9237;48.590;8.854;2023-07-31T07:30:51;0.60;;;0.60;;
18224;SDS011;9237;48.590;8.854;2023-07-31T07:33:19;0.60;;;0.60;;
18224;SDS011;9237;48.590;8.854;2023-07-31T07:35:46;0.60;;;0.60;;
18224;SDS011;9237;48.590;8.854;2023-07-31T07:38:13;0.60;;;0.60;;
18224;SDS011;9237;48.590;8.854;2023-07-31T07:40:40;0.60;;;0.60;;
18224;SDS011;9237;48.590;8.854;2023-07-31T07:43:07;0.60;;;0.60;;
18224;SDS011;9237;48.590;8.854;2023-07-31T07:45:35;0.60;;;0.60;;
18224;SDS011;9237;48.590;8.854;2023-07-31T07:48:02;0.60;;;0.60;;
18224;SDS011;9237;48.590;8.854;2023-07-31T07:50:30;0.50;;;0.50;;
18224;SDS011;9237;48.590;8.854;2023-07-31T07:52:57;0.60;;;0.60;;
18224;SDS011;9237;48.590;8.854;2023-07-31T07:55:24;0.60;;;0.60;;
18224;SDS011;9237;48.590;8.854;2023-07-31T07:57:50;0.50;;;0.50;;
18224;SDS011;9237;48.590;8.854;2023-07-31T08:00:18;0.60;;;0.60;;
18224;SDS011;9237;48.590;8.854;2023-07-31T08:02:47;0.50;;;0.50;;
18224;SDS011;9237;48.590;8.854;2023-07-31T08:05:14;0.50;;;0.50;;
18224;SDS011;9237;48.590;8.854;2023-07-31T08:07:42;0.50;;;0.50;;
18224;SDS011;9237;48.590;8.854;2023-07-31T08:10:09;0.40;;;0.40;;
18224;SDS011;9237;48.590;8.854;2023-07-31T08:12:36;0.40;;;0.40;;
18224;SDS011;9237;48.590;8.854;2023-07-31T08:15:03;0.47;;;0.47;;
18224;SDS011;9237;48.590;8.854;2023-07-31T08:17:30;0.40;;;0.40;;
18224;SDS011;9237;48.590;8.854;2023-07-31T08:19:59;0.40;;;0.40;;
18224;SDS011;9237;48.590;8.854;2023-07-31T08:22:25;0.40;;;0.40;;
18224;SDS011;9237;48.590;8.854;2023-07-31T08:24:52;0.40;;;0.40;;
18224;SDS011;9237;48.590;8.854;2023-07-31T08:27:19;0.40;;;0.40;;
18224;SDS011;9237;48.590;8.854;2023-07-31T08:29:46;0.40;;;0.40;;
18224;SDS011;9237;48.590;8.854;2023-07-31T08:32:12;0.40;;;0.40;;
18224;SDS011;9237;48.590;8.854;2023-07-31T08:34:39;0.40;;;0.40;;
18224;SDS011;9237;48.590;8.854;2023-07-31T08:37:08;0.40;;;0.40;;
18224;SDS011;9237;48.590;8.854;2023-07-31T08:39:36;0.40;;;0.40;;
18224;SDS011;9237;48.590;8.854;2023-07-31T08:42:07;0.40;;;0.40;;
18224;SDS011;9237;48.590;8.854;2023-07-31T08:44:34;0.40;;;0.40;;
18224;SDS011;9237;48.590;8.854;2023-07-31T08:47:02;0.40;;;0.40;;
18224;SDS011;9237;48.590;8.854;2023-07-31T08:49:29;0.50;;;0.50;;
18224;SDS011;9237;48.590;8.854;2023-07-31T08:51:57;0.50;;;0.50;;
18224;SDS011;9237;48.590;8.854;2023-07-31T08:54:25;0.60;;;0.60;;
18224;SDS011;9237;48.590;8.854;2023-07-31T08:56:55;0.50;;;0.50;;
18224;SDS011;9237;48.590;8.854;2023-07-31T08:59:24;0.50;;;0.50;;
18224;SDS011;9237;48.590;8.854;2023-07-31T09:01:53;0.55;;;0.55;;
18224;SDS011;9237;48.590;8.854;2023-07-31T09:04:20;0.50;;;0.50;;
18224;SDS011;9237;48.590;8.854;2023-07-31T09:06:48;0.50;;;0.50;;
18224;SDS011;9237;48.590;8.854;2023-07-31T09:09:17;0.50;;;0.50;;
18224;SDS011;9237;48.590;8.854;2023-07-31T09:11:47;0.50;;;0.50;;
18224;SDS011;9237;48.590;8.854;2023-07-31T09:14:15;0.50;;;0.50;;
18224;SDS011;9237;48.590;8.854;2023-07-31T09:16:53;0.50;;;0.50;;
18224;SDS011;9237;48.590;8.854;2023-07-31T09:19:27;0.50;;;0.50;;
18224;SDS011;9237;48.590;8.854;2023-07-31T09:21:55;0.50;;;0.50;;
18224;SDS011;9237;48.590;8.854;2023-07-31T09:24:25;0.50;;;0.50;;
18224;SDS011;9237;48.590;8.854;2023-07-31T09:26:54;0.50;;;0.50;;
18224;SDS011;9237;48.590;8.854;2023-07-31T09:29:22;0.40;;;0.40;;
18224;SDS011;9237;48.590;8.854;2023-07-31T09:31:49;0.50;;;0.50;;
18224;SDS011;9237;48.590;8.854;2023-07-31T09:34:16;0.50;;;0.50;;
18224;SDS011;9237;48.590;8.854;2023-07-31T09:36:44;0.50;;;0.50;;
18224;SDS011;9237;48.590;8.854;2023-07-31T09:39:12;0.50;;;0.50;;
18224;SDS011;9237;48.590;8.854;2023-07-31T09:41:42;0.50;;;0.50;;
18224;SDS011;9237;48.590;8.854;2023-07-31T09:44:11;0.50;;;0.50;;
18224;SDS011;9237;48.590;8.854;2023-07-31T09:46:37;0.50;;;0.50;;
18224;SDS011;9237;48.590;8.854;2023-07-31T09:49:06;0.40;;;0.40;;
18224;SDS011;9237;48.590;8.854;2023-07-31T09:51:34;0.50;;;0.50;;
18224;SDS011;9237;48.590;8.854;2023-07-31T09:54:03;0.50;;;0.50;;
18224;SDS011;9237;48.590;8.854;2023-07-31T09:56:41;0.50;;;0.50;;
18224;SDS011;9237;48.590;8.854;2023-07-31T09:59:12;0.50;;;0.50;;
18224;SDS011;9237;48.590;8.854;2023-07-31T10:01:40;0.40;;;0.40;;
18224;SDS011;9237;48.590;8.854;2023-07-31T10:04:09;0.40;;;0.40;;
18224;SDS011;9237;48.590;8.854;2023-07-31T10:06:37;0.40;;;0.40;;
18224;SDS011;9237;48.590;8.854;2023-07-31T10:09:06;0.40;;;0.40;;
18224;SDS011;9237;48.590;8.854;2023-07-31T10:11:38;0.40;;;0.40;;
18224;SDS011;9237;48.590;8.854;2023-07-31T10:14:09;0.40;;;0.40;;
18224;SDS011;9237;48.590;8.854;2023-07-31T10:16:38;0.40;;;0.40;;
18224;SDS011;9237;48.590;8.854;2023-07-31T10:19:06;0.40;;;0.40;;
18224;SDS011;9237;48.590;8.854;2023-07-31T10:21:34;0.50;;;0.50;;
18224;SDS011;9237;48.590;8.854;2023-07-31T10:24:02;0.40;;;0.40;;
18224;SDS011;9237;48.590;8.854;2023-07-31T10:26:30;0.50;;;0.50;;
18224;SDS011;9237;48.590;8.854;2023-07-31T10:28:58;0.40;;;0.40;;
18224;SDS011;9237;48.590;8.854;2023-07-31T10:31:25;0.40;;;0.40;;
18224;SDS011;9237;48.590;8.854;2023-07-31T10:33:55;0.40;;;0.40;;
18224;SDS011;9237;48.590;8.854;2023-07-31T10:36:24;0.40;;;0.40;;
18224;SDS011;9237;48.590;8.854;2023-07-31T10:38:51;0.30;;;0.30;;
18224;SDS011;9237;48.590;8.854;2023-07-31T10:41:18;0.30;;;0.30;;
18224;SDS011;9237;48.590;8.854;2023-07-31T10:43:45;0.40;;;0.40;;
18224;SDS011;9237;48.590;8.854;2023-07-31T10:46:14;0.30;;;0.30;;
18224;SDS011;9237;48.590;8.854;2023-07-31T10:48:41;0.30;;;0.30;;
18224;SDS011;9237;48.590;8.854;2023-07-31T10:51:10;0.40;;;0.40;;
18224;SDS011;9237;48.590;8.854;2023-07-31T10:53:38;0.40;;;0.40;;
18224;SDS011;9237;48.590;8.854;2023-07-31T10:56:07;0.30;;;0.30;;
18224;SDS011;9237;48.590;8.854;2023-07-31T10:58:35;0.30;;;0.30;;
18224;SDS011;9237;48.590;8.854;2023-07-31T11:01:03;0.30;;;0.30;;
18224;SDS011;9237;48.590;8.854;2023-07-31T11:03:41;0.30;;;0.30;;
18224;SDS011;9237;48.590;8.854;2023-07-31T11:06:10;0.40;;;0.40;;
18224;SDS011;9237;48.590;8.854;2023-07-31T11:08:41;0.40;;;0.40;;
18224;SDS011;9237;48.590;8.854;2023-07-31T11:11:10;0.40;;;0.40;;
18224;SDS011;9237;48.590;8.854;2023-07-31T11:13:41;0.40;;;0.40;;
18224;SDS011;9237;48.590;8.854;2023-07-31T11:16:09;0.40;;;0.40;;
18224;SDS011;9237;48.590;8.854;2023-07-31T11:18:39;0.40;;;0.40;;
18224;SDS011;9237;48.590;8.854;2023-07-31T11:21:07;0.40;;;0.40;;
18224;SDS011;9237;48.590;8.854;2023-07-31T11:23:36;0.50;;;0.50;;
18224;SDS011;9237;48.590;8.854;2023-07-31T11:26:04;0.50;;;0.50;;
18224;SDS011;9237;48.590;8.854;2023-07-31T11:28:32;0.50;;;0.50;;
18224;SDS011;9237;48.590;8.854;2023-07-31T11:31:26;0.50;;;0.50;;
18224;SDS011;9237;48.590;8.854;2023-07-31T11:34:30;0.50;;;0.50;;
18224;SDS011;9237;48.590;8.854;2023-07-31T11:36:57;0.50;;;0.50;;
18224;SDS011;9237;48.590;8.854;2023-07-31T11:39:25;0.50;;;0.50;;
18224;SDS011;9237;48.590;8.854;2023-07-31T11:41:53;0.50;;;0.50;;
18224;SDS011;9237;48.590;8.854;2023-07-31T11:44:25;0.50;;;0.50;;
18224;SDS011;9237;48.590;8.854;2023-07-31T11:46:51;0.50;;;0.50;;
18224;SDS011;9237;48.590;8.854;2023-07-31T11:49:18;0.50;;;0.50;;
18224;SDS011;9237;48.590;8.854;2023-07-31T11:51:45;0.50;;;0.50;;
18224;SDS011;9237;48.590;8.854;2023-07-31T11:54:12;0.50;;;0.50;;
18224;SDS011;9237;48.590;8.854;2023-07-31T11:56:40;0.50;;;0.50;;
18224;SDS011;9237;48.590;8.854;2023-07-31T11:59:07;0.50;;;0.50;;
18224;SDS011;9237;48.590;8.854;2023-07-31T12:01:34;0.60;;;0.60;;
18224;SDS011;9237;48.590;8.854;2023-07-31T12:04:02;0.60;;;0.60;;
18224;SDS011;9237;48.590;8.854;2023-07-31T12:06:32;0.50;;;0.50;;
18224;SDS011;9237;48.590;8.854;2023-07-31T12:09:00;0.50;;;0.50;;
18224;SDS011;9237;48.590;8.854;2023-07-31T12:11:29;0.50;;;0.50;;
18224;SDS011;9237;48.590;8.854;2023-07-31T12:13:57;0.40;;;0.40;;
18224;SDS011;9237;48.590;8.854;2023-07-31T12:16:25;0.40;;;0.40;;
18224;SDS011;9237;48.590;8.854;2023-07-31T12:18:53;0.50;;;0.50;;
18224;SDS011;9237;48.590;8.854;2023-07-31T12:21:19;0.40;;;0.40;;
18224;SDS011;9237;48.590;8.854;2023-07-31T12:23:46;0.40;;;0.40;;
18224;SDS011;9237;48.590;8.854;2023-07-31T12:26:14;0.40;;;0.40;;
18224;SDS011;9237;48.590;8.854;2023-07-31T12:28:42;0.40;;;0.40;;
18224;SDS011;9237;48.590;8.854;2023-07-31T12:31:12;0.40;;;0.40;;
18224;SDS011;9237;48.590;8.854;2023-07-31T12:33:41;0.40;;;0.40;;
18224;SDS011;9237;48.590;8.854;2023-07-31T12:36:08;0.40;;;0.40;;
18224;SDS011;9237;48.590;8.854;2023-07-31T12:38:37;0.40;;;0.40;;
18224;SDS011;9237;48.590;8.854;2023-07-31T12:41:04;0.30;;;0.30;;
18224;SDS011;9237;48.590;8.854;2023-07-31T12:43:31;0.40;;;0.40;;
18224;SDS011;9237;48.590;8.854;2023-07-31T12:45:58;0.30;;;0.30;;
18224;SDS011;9237;48.590;8.854;2023-07-31T12:48:27;0.30;;;0.30;;
18224;SDS011;9237;48.590;8.854;2023-07-31T12:50:54;0.45;;;0.45;;
18224;SDS011;9237;48.590;8.854;2023-07-31T12:53:21;0.38;;;0.38;;
18224;SDS011;9237;48.590;8.854;2023-07-31T12:55:47;0.30;;;0.30;;
18224;SDS011;9237;48.590;8.854;2023-07-31T12:58:15;0.40;;;0.40;;
18224;SDS011;9237;48.590;8.854;2023-07-31T13:00:42;0.40;;;0.40;;
18224;SDS011;9237;48.590;8.854;2023-07-31T13:03:08;0.40;;;0.40;;
18224;SDS011;9237;48.590;8.854;2023-07-31T13:05:37;0.40;;;0.40;;
18224;SDS011;9237;48.590;8.854;2023-07-31T13:08:04;0.50;;;0.50;;
18224;SDS011;9237;48.590;8.854;2023-07-31T13:10:30;0.40;;;0.40;;
18224;SDS011;9237;48.590;8.854;2023-07-31T13:12:57;0.43;;;0.43;;
18224;SDS011;9237;48.590;8.854;2023-07-31T13:15:24;0.50;;;0.50;;
18224;SDS011;9237;48.590;8.854;2023-07-31T13:17:51;0.40;;;0.40;;
18224;SDS011;9237;48.590;8.854;2023-07-31T13:20:17;0.50;;;0.50;;
18224;SDS011;9237;48.590;8.854;2023-07-31T13:22:46;0.40;;;0.40;;
18224;SDS011;9237;48.590;8.854;2023-07-31T13:25:13;0.43;;;0.43;;
18224;SDS011;9237;48.590;8.854;2023-07-31T13:27:40;0.40;;;0.40;;
18224;SDS011;9237;48.590;8.854;2023-07-31T13:30:07;0.60;;;0.60;;
18224;SDS011;9237;48.590;8.854;2023-07-31T13:32:34;0.50;;;0.50;;
18224;SDS011;9237;48.590;8.854;2023-07-31T13:35:03;0.50;;;0.50;;
18224;SDS011;9237;48.590;8.854;2023-07-31T13:37:31;0.50;;;0.50;;
18224;SDS011;9237;48.590;8.854;2023-07-31T13:39:59;0.50;;;0.50;;
18224;SDS011;9237;48.590;8.854;2023-07-31T13:42:26;0.50;;;0.50;;
18224;SDS011;9237;48.590;8.854;2023-07-31T13:44:53;0.50;;;0.50;;
18224;SDS011;9237;48.590;8.854;2023-07-31T13:47:21;0.50;;;0.50;;
18224;SDS011;9237;48.590;8.854;2023-07-31T13:49:48;0.50;;;0.50;;
18224;SDS011;9237;48.590;8.854;2023-07-31T13:52:14;0.40;;;0.40;;
18224;SDS011;9237;48.590;8.854;2023-07-31T13:54:41;0.50;;;0.50;;
18224;SDS011;9237;48.590;8.854;2023-07-31T13:57:10;0.47;;;0.47;;
18224;SDS011;9237;48.590;8.854;2023-07-31T13:59:36;0.50;;;0.50;;
18224;SDS011;9237;48.590;8.854;2023-07-31T14:02:03;0.50;;;0.50;;
18224;SDS011;9237;48.590;8.854;2023-07-31T14:04:30;0.40;;;0.40;;
18224;SDS011;9237;48.590;8.854;2023-07-31T14:06:57;0.40;;;0.40;;
18224;SDS011;9237;48.590;8.854;2023-07-31T14:09:25;0.40;;;0.40;;
18224;SDS011;9237;48.590;8.854;2023-07-31T14:11:52;0.40;;;0.40;;
18224;SDS011;9237;48.590;8.854;2023-07-31T14:14:20;0.50;;;0.50;;
18224;SDS011;9237;48.590;8.854;2023-07-31T14:16:47;0.50;;;0.50;;
18224;SDS011;9237;48.590;8.854;2023-07-31T14:19:14;0.50;;;0.50;;
18224;SDS011;9237;48.590;8.854;2023-07-31T14:21:41;0.50;;;0.50;;
18224;SDS011;9237;48.590;8.854;2023-07-31T14:24:08;0.50;;;0.50;;
18224;SDS011;9237;48.590;8.854;2023-07-31T14:26:34;0.40;;;0.40;;
18224;SDS011;9237;48.590;8.854;2023-07-31T14:29:01;0.40;;;0.40;;
18224;SDS011;9237;48.590;8.854;2023-07-31T14:31:29;0.40;;;0.40;;
18224;SDS011;9237;48.590;8.854;2023-07-31T14:33:56;0.50;;;0.50;;
18224;SDS011;9237;48.590;8.854;2023-07-31T14:36:23;0.50;;;0.50;;
18224;SDS011;9237;48.590;8.854;2023-07-31T14:38:49;0.40;;;0.40;;
18224;SDS011;9237;48.590;8.854;2023-07-31T14:41:16;0.50;;;0.50;;
18224;SDS011;9237;48.590;8.854;2023-07-31T14:43:43;0.50;;;0.50;;
18224;SDS011;9237;48.590;8.854;2023-07-31T14:46:10;0.50;;;0.50;;
18224;SDS011;9237;48.590;8.854;2023-07-31T14:48:38;0.50;;;0.50;;
18224;SDS011;9237;48.590;8.854;2023-07-31T14:51:04;0.50;;;0.50;;
18224;SDS011;9237;48.590;8.854;2023-07-31T14:53:31;0.47;;;0.47;;
18224;SDS011;9237;48.590;8.854;2023-07-31T14:55:58;0.40;;;0.40;;
18224;SDS011;9237;48.590;8.854;2023-07-31T14:58:25;0.40;;;0.40;;
18224;SDS011;9237;48.590;8.854;2023-07-31T15:00:52;0.40;;;0.40;;
18224;SDS011;9237;48.590;8.854;2023-07-31T15:03:19;0.50;;;0.50;;
18224;SDS011;9237;48.590;8.854;2023-07-31T15:05:47;0.50;;;0.50;;
18224;SDS011;9237;48.590;8.854;2023-07-31T15:08:13;0.50;;;0.50;;